createdAt,value
2023-12-12T00:00:14.073Z,103415.59
2023-12-12T00:05:16.910Z,103387.47
2023-12-12T00:10:19.606Z,103408.00
2023-12-12T00:15:22.301Z,103404.69
2023-12-12T00:20:24.855Z,103418.59
2023-12-12T00:25:27.526Z,103412.63
2023-12-12T00:30:30.118Z,103411.44
2023-12-12T00:35:32.793Z,103413.56
2023-12-12T00:40:35.521Z,103414.28
2023-12-12T00:45:38.087Z,103404.81
2023-12-12T00:50:40.692Z,103400.63
2023-12-12T00:55:43.358Z,103408.31
2023-12-12T01:00:46.584Z,103397.19
2023-12-12T01:05:49.204Z,103399.66
2023-12-12T01:10:51.857Z,103399.81
2023-12-12T01:15:54.518Z,103394.09
2023-12-12T01:20:57.299Z,103388.72
2023-12-12T01:25:59.875Z,103385.53
2023-12-12T01:31:02.637Z,103377.63
2023-12-12T01:36:05.695Z,103388.06
2023-12-12T01:41:08.336Z,103383.53
2023-12-12T01:46:15.184Z,103398.84
2023-12-12T01:51:18.092Z,103393.63
2023-12-12T01:56:21.143Z,103394.44
2023-12-12T02:01:24.558Z,103393.22
2023-12-12T02:06:27.478Z,103408.50
2023-12-12T02:11:30.230Z,103403.66
2023-12-12T02:16:33.322Z,103406.09
2023-12-12T02:21:38.903Z,103414.41
2023-12-12T02:26:42.692Z,103406.59
2023-12-12T02:31:45.300Z,103400.84
2023-12-12T02:36:47.932Z,103388.44
2023-12-12T02:41:50.498Z,103396.75
2023-12-12T02:46:53.096Z,103395.28
2023-12-12T02:51:55.784Z,103393.50
2023-12-12T02:57:01.150Z,103405.00
2023-12-12T03:02:03.915Z,103403.22
2023-12-12T03:07:06.542Z,103383.19
2023-12-12T03:12:09.183Z,103394.06
2023-12-12T03:17:11.803Z,103396.78
2023-12-12T03:22:14.458Z,103402.53
2023-12-12T03:27:17.201Z,103407.16
2023-12-12T03:32:19.790Z,103404.41
2023-12-12T03:37:22.571Z,103423.28
2023-12-12T03:42:25.186Z,103410.03
2023-12-12T03:47:27.871Z,103403.91
2023-12-12T03:52:30.544Z,103419.69
2023-12-12T03:57:33.321Z,103414.88
2023-12-12T04:02:36.092Z,103414.72
2023-12-12T04:07:40.572Z,103398.06
2023-12-12T04:12:43.426Z,103408.03
2023-12-12T04:17:46.158Z,103403.00
2023-12-12T04:22:48.781Z,103429.38
2023-12-12T04:27:51.544Z,103442.78
2023-12-12T04:32:59.799Z,103438.53
2023-12-12T04:38:03.235Z,103433.59
2023-12-12T04:43:05.999Z,103424.88
2023-12-12T04:48:08.780Z,103442.88
2023-12-12T04:53:11.637Z,103451.94
2023-12-12T04:58:14.557Z,103452.53
2023-12-12T05:03:18.016Z,103456.59
2023-12-12T05:08:20.667Z,103465.44
2023-12-12T05:13:23.384Z,103470.44
2023-12-12T05:18:26.372Z,103473.06
2023-12-12T05:23:29.624Z,103467.56
2023-12-12T05:28:32.355Z,103454.16
2023-12-12T05:33:35.546Z,103454.81
2023-12-12T05:38:40.426Z,103462.56
2023-12-12T05:43:43.717Z,103457.97
2023-12-12T05:48:46.502Z,103464.25
2023-12-12T05:53:50.829Z,103471.84
2023-12-12T05:58:53.735Z,103484.50
2023-12-12T06:03:56.507Z,103477.91
2023-12-12T06:08:59.191Z,103485.31
2023-12-12T06:14:04.729Z,103481.53
2023-12-12T06:19:07.619Z,103493.28
2023-12-12T06:24:10.500Z,103485.81
2023-12-12T06:29:14.556Z,103483.81
2023-12-12T06:34:17.332Z,103470.47
2023-12-12T06:39:20.087Z,103480.22
2023-12-12T06:44:23.885Z,103472.91
2023-12-12T06:49:26.670Z,103470.91
2023-12-12T06:54:30.511Z,103469.53
2023-12-12T06:59:33.296Z,103479.25
2023-12-12T07:04:35.876Z,103472.53
2023-12-12T07:09:38.580Z,103480.38
2023-12-12T07:14:42.611Z,103472.34
2023-12-12T07:19:45.626Z,103471.84
2023-12-12T07:24:51.593Z,103484.44
2023-12-12T07:29:54.209Z,103487.09
2023-12-12T07:34:56.967Z,103495.13
2023-12-12T07:39:59.722Z,103489.41
2023-12-12T07:45:03.516Z,103493.59
2023-12-12T07:50:10.103Z,103484.00
2023-12-12T07:55:12.953Z,103466.72
2023-12-12T08:00:16.279Z,103471.69
2023-12-12T08:05:19.214Z,103462.84
2023-12-12T08:10:22.045Z,103458.13
2023-12-12T08:15:25.278Z,103444.34
2023-12-12T08:20:28.155Z,103430.34
2023-12-12T08:25:31.384Z,103434.81
2023-12-12T08:30:34.268Z,103436.97
2023-12-12T08:35:37.623Z,103431.41
2023-12-12T08:40:40.248Z,103427.09
2023-12-12T08:45:43.980Z,103431.28
2023-12-12T08:50:49.039Z,103431.78
2023-12-12T08:55:51.716Z,103416.09
2023-12-12T09:00:55.986Z,103414.25
2023-12-12T09:05:58.902Z,103416.72
2023-12-12T09:11:01.597Z,103404.59
2023-12-12T09:16:04.707Z,103386.34
2023-12-12T09:21:08.507Z,103362.25
2023-12-12T09:26:15.813Z,103360.09
2023-12-12T09:31:29.099Z,103354.59
2023-12-12T09:36:33.121Z,103343.59
2023-12-12T09:41:36.224Z,103358.09
2023-12-12T09:46:39.687Z,103355.72
2023-12-12T09:51:44.068Z,103336.13
2023-12-12T09:56:49.283Z,103343.09
2023-12-12T10:01:59.173Z,103348.00
2023-12-12T10:07:07.453Z,103341.56
2023-12-12T10:12:10.298Z,103340.41
2023-12-12T10:17:13.652Z,103340.03
2023-12-12T10:22:16.326Z,103350.78
2023-12-12T10:27:22.035Z,103340.84
2023-12-12T10:32:24.837Z,103345.06
2023-12-12T10:37:28.516Z,103343.16
2023-12-12T10:42:34.187Z,103346.22
2023-12-12T10:47:43.110Z,103337.38
2023-12-12T10:58:11.449Z,103331.69
2023-12-12T11:03:14.360Z,103339.59
2023-12-12T11:08:17.000Z,103330.44
2023-12-12T11:13:22.571Z,103341.13
2023-12-12T11:18:25.306Z,103327.13
2023-12-12T11:23:55.153Z,103323.69
2023-12-12T11:28:59.337Z,103324.03
2023-12-12T11:34:12.420Z,103323.41
2023-12-12T11:39:42.423Z,103323.44
2023-12-12T11:44:48.887Z,103322.97
2023-12-12T11:49:52.568Z,103313.22
2023-12-12T11:54:55.552Z,103306.72
2023-12-12T12:00:05.641Z,103279.34
2023-12-12T12:05:10.431Z,103296.94
2023-12-12T12:10:13.271Z,103294.78
2023-12-12T12:15:16.041Z,103307.34
2023-12-12T12:20:19.272Z,103305.44
2023-12-12T12:25:24.528Z,103307.78
2023-12-12T12:30:27.684Z,103307.19
2023-12-12T12:35:31.727Z,103311.16
2023-12-12T12:40:40.211Z,103338.47
2023-12-12T12:45:43.322Z,103322.16
2023-12-12T12:50:48.310Z,103317.44
2023-12-12T12:55:51.136Z,103333.28
2023-12-12T13:00:53.978Z,103329.72
2023-12-12T13:05:56.759Z,103342.28
2023-12-12T13:10:59.403Z,103351.66
2023-12-12T13:16:02.285Z,103350.97
2023-12-12T13:21:08.404Z,103350.91
2023-12-12T13:26:11.206Z,103353.03
2023-12-12T13:31:14.165Z,103340.00
2023-12-12T13:36:16.978Z,103338.72
2023-12-12T13:41:20.109Z,103335.38
2023-12-12T13:46:25.353Z,103346.59
2023-12-12T13:51:34.558Z,103343.47
2023-12-12T13:56:44.793Z,103345.44
2023-12-12T14:01:47.479Z,103351.81
2023-12-12T14:06:50.128Z,103349.31
2023-12-12T14:11:56.067Z,103352.66
2023-12-12T14:16:58.864Z,103331.81
2023-12-12T14:22:01.478Z,103333.44
2023-12-12T14:27:06.730Z,103342.34
2023-12-12T14:32:11.257Z,103343.38
2023-12-12T14:37:14.105Z,103344.84
2023-12-12T14:42:18.244Z,103343.22
2023-12-12T14:47:21.170Z,103361.44
2023-12-12T14:52:24.128Z,103337.56
2023-12-12T14:57:27.238Z,103352.72
2023-12-12T15:02:30.406Z,103345.72
2023-12-12T15:07:33.553Z,103352.19
2023-12-12T15:12:36.918Z,103350.28
2023-12-12T15:17:40.331Z,103344.94
2023-12-12T15:22:43.417Z,103352.13
2023-12-12T15:28:23.865Z,103349.50
2023-12-12T15:33:29.553Z,103345.75
2023-12-12T15:38:33.593Z,103350.88
2023-12-12T15:43:36.252Z,103342.25
2023-12-12T15:48:39.147Z,103341.47
2023-12-12T15:53:41.969Z,103344.78
2023-12-12T15:58:48.919Z,103344.84
2023-12-12T16:03:55.058Z,103341.88
2023-12-12T16:08:58.464Z,103323.06
2023-12-12T16:14:03.155Z,103325.59
2023-12-12T16:19:06.305Z,103316.84
2023-12-12T16:24:09.539Z,103326.81
2023-12-12T16:29:12.635Z,103317.81
2023-12-12T16:34:16.681Z,103320.84
2023-12-12T16:39:21.942Z,103316.91
2023-12-12T16:44:24.640Z,103310.44
2023-12-12T16:49:27.362Z,103314.25
2023-12-12T16:54:30.150Z,103301.31
2023-12-12T16:59:32.758Z,103294.41
2023-12-12T17:04:35.541Z,103310.44
2023-12-12T17:09:38.336Z,103306.75
2023-12-12T17:14:41.372Z,103288.75
2023-12-12T17:19:44.829Z,103295.56
2023-12-12T17:24:49.575Z,103289.63
2023-12-12T17:29:52.843Z,103291.78
2023-12-12T17:34:56.151Z,103291.44
2023-12-12T17:39:59.193Z,103291.19
2023-12-12T17:45:03.199Z,103283.47
2023-12-12T17:50:09.943Z,103280.56
2023-12-12T17:55:14.403Z,103273.69
2023-12-12T18:00:17.718Z,103278.25
2023-12-12T18:05:25.324Z,103277.72
2023-12-12T18:10:28.085Z,103269.28
2023-12-12T18:15:31.077Z,103232.69
2023-12-12T18:20:35.472Z,103244.66
2023-12-12T18:25:42.060Z,103247.91
2023-12-12T18:30:50.198Z,103242.63
2023-12-12T18:35:57.760Z,103231.72
2023-12-12T18:41:07.677Z,103237.06
2023-12-12T18:46:13.331Z,103233.56
2023-12-12T18:51:16.959Z,103238.66
2023-12-12T18:56:23.188Z,103239.00
2023-12-12T19:01:27.673Z,103223.09
2023-12-12T19:06:31.310Z,103241.47
2023-12-12T19:11:41.315Z,103216.97
2023-12-12T19:16:47.830Z,103210.06
2023-12-12T19:21:53.295Z,103208.38
2023-12-12T19:26:56.401Z,103206.63
2023-12-12T19:31:59.713Z,103196.16
2023-12-12T19:37:04.047Z,103205.13
2023-12-12T19:42:07.144Z,103206.31
2023-12-12T19:47:11.453Z,103183.56
2023-12-12T19:52:14.879Z,103209.34
2023-12-12T19:57:18.130Z,103197.44
2023-12-12T20:02:22.662Z,103201.13
2023-12-12T20:07:25.606Z,103198.59
2023-12-12T20:12:29.736Z,103199.31
2023-12-12T20:17:32.674Z,103207.09
2023-12-12T20:22:36.719Z,103187.34
2023-12-12T20:27:46.630Z,103199.09
2023-12-12T20:32:50.244Z,103201.91
2023-12-12T20:37:53.317Z,103194.56
2023-12-12T20:42:58.451Z,103194.09
2023-12-12T20:48:01.327Z,103188.56
2023-12-12T20:53:04.921Z,103191.91
2023-12-12T20:58:09.784Z,103173.69
2023-12-12T21:03:13.509Z,103175.44
2023-12-12T21:08:16.341Z,103156.00
2023-12-12T21:13:27.674Z,103168.63
2023-12-12T21:18:30.811Z,103152.41
2023-12-12T21:23:34.636Z,103153.56
2023-12-12T21:28:37.514Z,103149.31
2023-12-12T21:33:40.419Z,103154.25
2023-12-12T21:38:45.324Z,103142.19
2023-12-12T21:43:50.141Z,103130.09
2023-12-12T21:48:55.410Z,103147.06
2023-12-12T21:54:01.003Z,103146.25
2023-12-12T21:59:03.757Z,103145.16
2023-12-12T22:04:07.174Z,103140.19
2023-12-12T22:09:10.249Z,103145.84
2023-12-12T22:14:14.042Z,103125.06
2023-12-12T22:19:16.901Z,103133.06
2023-12-12T22:24:23.861Z,103134.81
2023-12-12T22:29:27.597Z,103135.31
2023-12-12T22:34:30.447Z,103128.00
2023-12-12T22:39:34.318Z,103119.97
2023-12-12T22:44:37.043Z,103114.31
2023-12-12T22:49:40.342Z,103107.66
2023-12-12T22:54:44.294Z,103108.53
2023-12-12T22:59:47.118Z,103112.16
2023-12-12T23:04:49.983Z,103112.03
2023-12-12T23:09:53.034Z,103105.88
2023-12-12T23:14:56.416Z,103092.03
2023-12-12T23:20:00.703Z,103078.81
2023-12-12T23:25:03.922Z,103081.63
2023-12-12T23:30:07.709Z,103078.38
2023-12-12T23:35:11.123Z,103072.38
2023-12-12T23:40:13.994Z,103072.13
2023-12-12T23:45:22.325Z,103068.34
2023-12-12T23:50:28.430Z,103067.97
2023-12-12T23:55:31.480Z,103061.78
